Aeroporto :
LOGIN :

Iscrizione | Disclaimer

   EN    FR    IT 

 










Sommario :    VFR   VFR Marginale   IFR   IFR Intensivo   IFR Molto Intensivo
Visibilità : 
Base nubi : 
>= 8 km
>= 3000ft
5 / 8 km
1000 / 3000 ft
1500m / 5 km
500 / 1000 ft
800 / 1500m
200 / 500 ft
< 800m
< 200 ft
Simboli :   Temporali  Nebbia  Neve Forte  Precipitazioni Forti  Vento > 20 kt
SIGMETs :   Varie  Temporali  Ghiacco  Turbolenza  Onda orograficha  Ceneri Vulcaniche







- Altitudine del aeroporto : 1090 ft
- Codice IATA : CFE
- Carte del aeroporto


LFLC - Clermont-Ferrand Auvergne

ULTIMO METAR :
  • 192300Z AUTO VRB03KT 9999 FEW044 BKN100 BKN220 19/15 Q1015 TEMPO VRB15G30KT SHRA BKN060TCU

METARs OBSOLETI :
  • 192230Z AUTO VRB03KT 9999 FEW046 BKN100 OVC110 19/15 Q1014 TEMPO VRB15G30KT SHRA BKN060TCU
  • 192200Z AUTO 08004KT 040V170 9999 FEW060 OVC094 20/15 Q1014 TEMPO VRB15G30KT SHRA BKN060TCU
  • 192130Z AUTO VRB03KT 9999 FEW040 BKN098 BKN120 20/15 Q1014 TEMPO VRB15G30KT SHRA BKN060TCU
  • 192100Z AUTO 13004KT 080V150 9999 FEW043 BKN092 BKN120 20/16 Q1014 TEMPO VRB15G30KT SHRA BKN060TCU
  • 192030Z AUTO 07005KT 9999 ///TCU 20/15 Q1014 BECMG NSC

TAF TAF LFLC
Valido dal 19 a 21 ore il 20 a 21 ore UTC


192000Z 1921/2021 36007KT CAVOK
PROB30
TEMPO 1921/1924 VRB15G30KT SHRA BKN060TCU
BECMG 2003/2006 BKN045
PROB30
TEMPO 2012/2021 -SHRA BKN040TCU
ATIS : +33 4 73 62 74 38
Nessun NOTAM noto per questo aeroporto.



MetMap, La meteo Aeronautica in un colpo d'occhio ! - Copyright ORBIFLY Dicembre 2007 - Disclaimer

ORBIFLY MET'MAP TEAM :

Programmazione e sviluppo : Alexandra Zaïnal
Concezione e sviluppo : Baudouin d'Aumeries
Co-Programmazione e sviluppo : Marc-Olivier Méhu
Supporto tecnico e logistico : Manuel Goepfert
Aiuto per la traduzione : Arnaldo La Scala

Contatto : metmap@orbifly.com




FONTI E CREDITI :

   NOAA